Time;durP1;ratioP1;P1;durP2;ratioP2;P2;SDS_P1;SDS_P2;PMS_P1;PMS_P2;Temp;Humidity;BMP_temperature;BMP_pressure;BME280_temperature;BME280_humidity;BME280_pressure;Samples;Min_cycle;Max_cycle;Signal;HPM_P1;HPM_P2
2021/10/03 00:01:19;;;;;;;1.00;0.90;;;17.00;98.60;;;;;;5011726;28;20084;-79
2021/10/03 00:03:47;;;;;;;1.17;0.73;;;17.00;98.60;;;;;;5012729;28;20026;-80
2021/10/03 00:06:13;;;;;;;1.27;0.80;;;17.00;98.50;;;;;;5011652;28;20076;-79
2021/10/03 00:08:39;;;;;;;0.52;0.47;;;17.00;98.50;;;;;;5012505;28;20509;-78
2021/10/03 00:11:06;;;;;;;2.03;0.68;;;17.00;98.50;;;;;;5012708;28;20097;-79
2021/10/03 00:13:33;;;;;;;2.85;0.77;;;17.10;98.50;;;;;;5011112;28;20106;-79
2021/10/03 00:16:00;;;;;;;1.40;0.93;;;17.10;98.50;;;;;;5013007;28;20026;-79
2021/10/03 00:18:27;;;;;;;0.75;0.60;;;17.10;98.50;;;;;;5012173;28;20544;-78
2021/10/03 00:20:52;;;;;;;0.50;0.50;;;17.10;98.50;;;;;;5011460;28;20028;-79
2021/10/03 00:23:19;;;;;;;0.93;0.70;;;17.10;98.40;;;;;;5010901;28;20021;-79
2021/10/03 00:25:44;;;;;;;0.60;0.50;;;17.10;98.40;;;;;;5012830;28;20033;-79
2021/10/03 00:28:11;;;;;;;0.88;0.55;;;17.20;98.40;;;;;;5013020;28;20026;-80
2021/10/03 00:30:38;;;;;;;1.40;0.60;;;17.20;98.40;;;;;;5012060;28;20025;-79
2021/10/03 00:33:05;;;;;;;0.75;0.55;;;17.20;98.40;;;;;;5011458;28;20017;-79
2021/10/03 00:35:31;;;;;;;0.60;0.60;;;17.20;98.40;;;;;;5011724;28;20425;-80
2021/10/03 00:37:59;;;;;;;0.70;0.70;;;17.20;98.40;;;;;;5011244;28;20034;-79
2021/10/03 00:40:26;;;;;;;0.65;0.52;;;17.20;98.30;;;;;;5010295;28;20437;-79
2021/10/03 00:42:52;;;;;;;1.88;0.98;;;17.20;98.30;;;;;;5010675;28;20025;-79
2021/10/03 00:45:18;;;;;;;1.50;0.90;;;17.30;98.30;;;;;;5012133;28;20388;-80
2021/10/03 00:47:44;;;;;;;1.30;0.63;;;17.20;98.30;;;;;;5012030;28;20029;-79
2021/10/03 00:50:13;;;;;;;1.33;0.70;;;17.30;98.30;;;;;;5012790;28;20058;-82
2021/10/03 00:52:44;;;;;;;1.88;0.60;;;17.30;98.20;;;;;;5010474;28;20352;-80
2021/10/03 00:55:12;;;;;;;0.68;0.50;;;17.30;98.30;;;;;;5012528;28;20030;-79
2021/10/03 00:57:40;;;;;;;0.77;0.60;;;17.30;98.20;;;;;;5011754;28;20026;-79
2021/10/03 01:00:08;;;;;;;0.73;0.57;;;17.30;98.20;;;;;;5012363;28;20152;-79
2021/10/03 01:02:33;;;;;;;3.42;0.60;;;17.30;98.20;;;;;;5010250;28;20482;-80
2021/10/03 01:04:59;;;;;;;0.82;0.50;;;17.30;98.20;;;;;;5011102;28;20057;-82
2021/10/03 01:07:25;;;;;;;1.48;0.52;;;17.40;98.20;;;;;;5011491;28;20101;-80
2021/10/03 01:09:51;;;;;;;1.05;0.55;;;17.30;98.10;;;;;;5012503;28;20030;-80
2021/10/03 01:12:16;;;;;;;1.15;0.60;;;17.40;98.20;;;;;;5012301;28;20059;-80
2021/10/03 01:14:42;;;;;;;0.60;0.60;;;17.40;98.20;;;;;;5011330;28;20029;-80
2021/10/03 01:17:08;;;;;;;0.70;0.50;;;17.30;98.10;;;;;;5012548;28;20026;-79
2021/10/03 01:19:35;;;;;;;0.70;0.47;;;17.40;98.20;;;;;;5011443;28;20430;-80
2021/10/03 01:22:01;;;;;;;0.50;0.50;;;17.40;98.20;;;;;;5010918;28;20022;-79
2021/10/03 01:24:32;;;;;;;0.68;0.60;;;17.40;98.20;;;;;;5011262;28;20026;-79
2021/10/03 01:26:58;;;;;;;1.08;0.60;;;17.40;98.20;;;;;;5011830;28;20022;-79
2021/10/03 01:29:23;;;;;;;0.45;0.30;;;17.40;98.20;;;;;;5011404;28;20041;-78
2021/10/03 01:31:49;;;;;;;0.70;0.50;;;17.40;98.20;;;;;;5011042;28;20026;-79
2021/10/03 01:34:15;;;;;;;1.13;0.50;;;17.40;98.20;;;;;;5012122;28;20026;-79
2021/10/03 01:36:40;;;;;;;0.70;0.43;;;17.30;98.20;;;;;;5011297;28;20060;-79
2021/10/03 01:39:06;;;;;;;0.93;0.40;;;17.30;98.20;;;;;;5012275;28;20033;-79
2021/10/03 01:41:32;;;;;;;2.80;0.50;;;17.30;98.30;;;;;;5011625;28;20482;-79
2021/10/03 01:44:00;;;;;;;0.30;0.30;;;17.40;98.30;;;;;;5010927;28;20018;-79
2021/10/03 01:46:25;;;;;;;1.08;0.52;;;17.30;98.30;;;;;;5011251;28;20462;-78
2021/10/03 01:48:51;;;;;;;0.55;0.40;;;17.30;98.40;;;;;;5011815;28;20037;-79
2021/10/03 01:51:17;;;;;;;0.50;0.50;;;17.30;98.40;;;;;;5012057;28;20033;-79
2021/10/03 01:53:50;;;;;;;0.93;0.60;;;17.30;98.50;;;;;;5013091;28;20021;-79
2021/10/03 01:56:36;;;;;;;0.73;0.60;;;17.20;98.60;;;;;;5015123;28;20034;-79
2021/10/03 01:59:04;;;;;;;0.50;0.50;;;17.20;98.60;;;;;;5015512;28;20157;-79
2021/10/03 02:01:46;;;;;;;0.50;0.40;;;17.20;98.60;;;;;;5014841;28;20029;-79
2021/10/03 02:04:21;;;;;;;0.60;0.40;;;17.20;98.70;;;;;;5015597;28;20033;-80
2021/10/03 02:06:49;;;;;;;0.65;0.47;;;17.20;98.70;;;;;;5014522;28;20069;-80
2021/10/03 02:09:17;;;;;;;1.27;0.77;;;17.20;98.70;;;;;;5013824;28;20026;-80
2021/10/03 02:11:45;;;;;;;0.45;0.45;;;17.20;98.80;;;;;;5014850;28;20022;-79
2021/10/03 02:14:12;;;;;;;0.50;0.40;;;17.20;98.90;;;;;;5015759;28;20057;-80
2021/10/03 02:16:38;;;;;;;0.50;0.50;;;17.20;98.90;;;;;;5014679;28;20026;-80
2021/10/03 02:19:04;;;;;;;0.55;0.55;;;17.20;98.90;;;;;;5015343;28;20100;-79
2021/10/03 02:21:31;;;;;;;0.77;0.47;;;17.20;99.00;;;;;;5014719;28;20093;-80
2021/10/03 02:23:56;;;;;;;0.73;0.43;;;17.20;98.90;;;;;;5014883;28;20041;-78
2021/10/03 02:26:22;;;;;;;0.85;0.60;;;17.20;99.00;;;;;;5014791;28;20030;-78
2021/10/03 02:28:48;;;;;;;0.98;0.50;;;17.20;99.00;;;;;;5012985;28;20037;-79
2021/10/03 02:31:14;;;;;;;1.02;0.50;;;17.20;99.00;;;;;;5013478;28;20540;-80
2021/10/03 02:33:43;;;;;;;1.15;0.85;;;17.30;99.10;;;;;;5012905;28;20026;-79
2021/10/03 02:36:09;;;;;;;0.47;0.40;;;17.30;99.10;;;;;;5014734;28;20026;-80
2021/10/03 02:38:35;;;;;;;1.60;0.70;;;17.30;99.10;;;;;;5012810;28;20032;-79
2021/10/03 02:41:03;;;;;;;0.60;0.50;;;17.30;99.10;;;;;;5014478;28;20053;-80
2021/10/03 02:43:32;;;;;;;1.08;0.60;;;17.30;99.00;;;;;;5012492;28;20025;-79
2021/10/03 02:45:59;;;;;;;1.48;0.70;;;17.30;99.00;;;;;;5012189;28;20172;-79
2021/10/03 02:48:27;;;;;;;1.65;0.52;;;17.20;99.00;;;;;;5012560;28;20110;-79
2021/10/03 02:50:53;;;;;;;0.88;0.60;;;17.20;99.00;;;;;;5012818;28;20073;-79
2021/10/03 02:53:21;;;;;;;0.60;0.40;;;17.20;99.10;;;;;;5013791;28;20075;-79
2021/10/03 02:55:46;;;;;;;0.47;0.43;;;17.20;99.10;;;;;;5013115;28;20149;-79
2021/10/03 02:58:12;;;;;;;0.95;0.50;;;17.20;99.10;;;;;;5013789;28;20485;-80
2021/10/03 03:00:40;;;;;;;1.02;0.70;;;17.10;99.10;;;;;;5012994;28;20360;-79
2021/10/03 03:03:07;;;;;;;0.68;0.40;;;17.10;99.20;;;;;;5014322;28;20033;-79
2021/10/03 03:05:33;;;;;;;0.45;0.40;;;17.10;99.20;;;;;;5011329;28;20026;-79
2021/10/03 03:07:59;;;;;;;0.70;0.47;;;17.10;99.30;;;;;;5013208;28;20386;-79
2021/10/03 03:10:25;;;;;;;0.73;0.55;;;17.10;99.30;;;;;;5013805;28;20029;-80
2021/10/03 03:12:50;;;;;;;1.92;0.63;;;17.10;99.40;;;;;;5012118;28;20018;-79
2021/10/03 03:15:16;;;;;;;1.02;0.60;;;17.10;99.40;;;;;;5013939;28;20101;-79
2021/10/03 03:17:42;;;;;;;1.00;0.60;;;17.00;99.40;;;;;;5012000;28;20052;-79
2021/10/03 03:20:09;;;;;;;0.70;0.60;;;17.10;99.50;;;;;;5013834;28;20049;-80
2021/10/03 03:22:35;;;;;;;1.02;0.50;;;17.10;99.50;;;;;;5013097;28;20034;-79
2021/10/03 03:25:02;;;;;;;1.45;0.70;;;17.10;99.60;;;;;;5013663;28;20030;-79
2021/10/03 03:27:28;;;;;;;1.05;0.40;;;17.10;99.60;;;;;;5014084;28;20532;-80
2021/10/03 03:29:53;;;;;;;0.70;0.60;;;17.10;99.60;;;;;;5013160;28;20037;-80
2021/10/03 03:32:19;;;;;;;0.80;0.60;;;17.10;99.60;;;;;;5013749;28;20501;-80
2021/10/03 03:34:44;;;;;;;1.33;0.90;;;17.10;99.60;;;;;;5011746;28;20117;-80
2021/10/03 03:37:10;;;;;;;1.20;0.80;;;17.10;99.70;;;;;;5026041;28;20113;-80
2021/10/03 03:39:36;;;;;;;2.03;0.80;;;17.10;99.70;;;;;;5030643;28;20075;-80
2021/10/03 03:42:02;;;;;;;2.38;1.02;;;17.10;99.70;;;;;;5030913;28;20045;-80
2021/10/03 03:44:29;;;;;;;1.85;1.05;;;17.10;99.70;;;;;;5032864;28;20037;-80
2021/10/03 03:46:55;;;;;;;2.10;0.93;;;17.10;99.70;;;;;;5032517;28;20112;-80
2021/10/03 03:49:20;;;;;;;1.40;1.05;;;17.10;99.70;;;;;;5033049;28;20025;-80
2021/10/03 03:51:46;;;;;;;2.25;1.10;;;17.10;99.70;;;;;;5032178;28;20017;-79
2021/10/03 03:54:12;;;;;;;1.67;1.00;;;17.00;99.80;;;;;;5031871;28;20025;-79
2021/10/03 03:56:37;;;;;;;1.88;1.20;;;17.00;99.80;;;;;;5032202;28;20421;-82
2021/10/03 03:59:03;;;;;;;1.05;0.82;;;16.90;99.80;;;;;;5032509;28;20560;-79
2021/10/03 04:01:29;;;;;;;1.55;0.70;;;16.80;99.90;;;;;;5032798;28;20095;-79
2021/10/03 04:03:55;;;;;;;0.40;0.40;;;16.50;99.90;;;;;;5031955;28;20091;-80
2021/10/03 04:06:21;;;;;;;0.63;0.50;;;16.40;99.90;;;;;;5032651;28;20021;-77
2021/10/03 04:08:46;;;;;;;0.32;0.20;;;16.20;99.90;;;;;;5032133;28;20026;-79
2021/10/03 04:11:13;;;;;;;0.38;0.20;;;16.10;99.90;;;;;;5032735;28;20060;-79
2021/10/03 04:13:40;;;;;;;0.32;0.30;;;16.00;99.90;;;;;;5047300;28;20454;-79
2021/10/03 04:16:05;;;;;;;0.20;0.20;;;16.00;99.90;;;;;;5030953;28;20025;-81
2021/10/03 04:18:31;;;;;;;0.10;0.10;;;15.90;99.90;;;;;;5032628;28;20083;-78
2021/10/03 04:20:57;;;;;;;0.10;0.10;;;16.00;99.90;;;;;;5030657;28;20017;-79
2021/10/03 04:23:23;;;;;;;0.10;0.10;;;16.00;99.90;;;;;;5032546;28;20419;-78
2021/10/03 04:25:48;;;;;;;0.10;0.10;;;16.00;99.90;;;;;;5031751;28;20059;-78
2021/10/03 04:28:14;;;;;;;0.10;0.10;;;16.00;99.90;;;;;;5031065;28;20030;-78
2021/10/03 04:30:42;;;;;;;0.10;0.10;;;16.00;99.90;;;;;;5030305;28;20063;-78
2021/10/03 04:33:08;;;;;;;0.10;0.10;;;16.00;99.90;;;;;;5032577;28;20028;-79
2021/10/03 04:35:34;;;;;;;0.10;0.10;;;16.00;99.90;;;;;;5032636;28;20025;-80
2021/10/03 04:38:00;;;;;;;0.10;0.10;;;16.00;99.90;;;;;;5030332;28;20025;-79
2021/10/03 04:40:26;;;;;;;0.10;0.10;;;15.90;99.90;;;;;;5032012;28;20089;-78
2021/10/03 04:42:52;;;;;;;0.10;0.10;;;15.90;99.90;;;;;;5031734;28;20026;-79
2021/10/03 04:45:18;;;;;;;0.10;0.10;;;15.90;99.90;;;;;;5032111;28;20045;-79
2021/10/03 04:47:46;;;;;;;0.10;0.10;;;15.90;99.90;;;;;;5030261;28;20033;-79
2021/10/03 04:50:12;;;;;;;0.10;0.10;;;15.80;99.90;;;;;;5030686;28;20112;-78
2021/10/03 04:52:39;;;;;;;0.10;0.10;;;15.80;99.90;;;;;;5030320;28;20017;-77
2021/10/03 04:55:08;;;;;;;0.10;0.10;;;15.80;99.90;;;;;;5030677;28;20021;-78
2021/10/03 04:57:33;;;;;;;0.10;0.10;;;15.60;99.90;;;;;;5032013;28;20025;-79
2021/10/03 04:59:59;;;;;;;0.10;0.10;;;15.60;99.90;;;;;;5029919;28;20021;-78
2021/10/03 05:02:25;;;;;;;0.10;0.10;;;15.50;99.90;;;;;;5030513;28;20458;-78
2021/10/03 05:04:50;;;;;;;0.10;0.10;;;15.50;99.90;;;;;;5031329;28;20377;-78
2021/10/03 05:07:16;;;;;;;0.10;0.10;;;15.40;99.90;;;;;;5030581;28;20048;-79
2021/10/03 05:09:42;;;;;;;0.10;0.10;;;15.40;99.90;;;;;;5031272;28;20029;-77
2021/10/03 05:12:08;;;;;;;0.10;0.10;;;15.40;99.90;;;;;;5032043;28;20025;-78
2021/10/03 05:14:34;;;;;;;0.10;0.10;;;15.30;99.90;;;;;;5030477;28;20428;-78
2021/10/03 05:16:59;;;;;;;0.10;0.10;;;15.30;99.90;;;;;;5030938;28;20048;-78
2021/10/03 05:19:25;;;;;;;0.10;0.10;;;15.30;99.90;;;;;;5032232;28;20041;-78
2021/10/03 05:21:51;;;;;;;0.10;0.10;;;15.40;99.90;;;;;;5031218;28;20021;-79
2021/10/03 05:24:17;;;;;;;0.10;0.10;;;15.40;99.90;;;;;;5031487;28;20510;-79
2021/10/03 05:26:42;;;;;;;0.10;0.10;;;15.30;99.90;;;;;;5031064;28;20490;-78
2021/10/03 05:29:08;;;;;;;0.10;0.10;;;15.40;99.90;;;;;;5032802;28;20065;-78
2021/10/03 05:31:34;;;;;;;0.10;0.10;;;15.40;99.90;;;;;;5035612;28;20100;-78
2021/10/03 05:34:00;;;;;;;0.10;0.10;;;15.40;99.90;;;;;;5032491;28;20021;-78
2021/10/03 05:36:26;;;;;;;0.10;0.10;;;15.40;99.90;;;;;;5023516;28;20030;-78
2021/10/03 05:38:53;;;;;;;0.10;0.10;;;15.40;99.90;;;;;;5013797;28;20419;-78
2021/10/03 05:41:19;;;;;;;0.10;0.10;;;15.40;99.90;;;;;;5013905;28;20125;-78
2021/10/03 05:43:44;;;;;;;0.10;0.10;;;15.40;99.90;;;;;;5014981;28;20108;-78
2021/10/03 05:46:10;;;;;;;0.10;0.10;;;15.40;99.90;;;;;;5014244;28;20025;-77
2021/10/03 05:48:36;;;;;;;0.10;0.10;;;15.30;99.90;;;;;;5015671;28;20033;-78
2021/10/03 05:51:02;;;;;;;0.10;0.10;;;15.30;99.90;;;;;;5030101;28;20279;-78
2021/10/03 05:53:28;;;;;;;0.10;0.10;;;15.30;99.90;;;;;;5015482;28;20018;-78
2021/10/03 05:55:54;;;;;;;0.10;0.10;;;15.30;99.90;;;;;;5013510;28;20034;-77
2021/10/03 05:58:20;;;;;;;0.10;0.10;;;15.30;99.90;;;;;;5015318;28;20491;-78
2021/10/03 06:00:46;;;;;;;0.08;0.08;;;15.20;99.90;;;;;;5015003;28;20100;-78
2021/10/03 06:03:11;;;;;;;0.10;0.10;;;15.20;99.90;;;;;;5015004;28;20054;-78
2021/10/03 06:05:37;;;;;;;0.10;0.10;;;15.20;99.90;;;;;;5015203;28;20061;-78
2021/10/03 06:08:03;;;;;;;0.10;0.10;;;15.20;99.90;;;;;;5029720;28;20585;-77
2021/10/03 06:10:29;;;;;;;0.10;0.10;;;15.10;99.90;;;;;;5015129;28;20033;-77
2021/10/03 06:12:55;;;;;;;0.10;0.10;;;15.10;99.90;;;;;;5030873;28;20041;-79
2021/10/03 06:15:21;;;;;;;0.10;0.10;;;15.10;99.90;;;;;;5017508;28;20025;-77
2021/10/03 06:17:47;;;;;;;0.10;0.10;;;15.00;99.90;;;;;;5014974;28;20454;-77
2021/10/03 06:20:13;;;;;;;0.10;0.10;;;15.00;99.90;;;;;;5013685;28;20021;-79
2021/10/03 06:22:46;;;;;;;0.10;0.10;;;15.00;99.90;;;;;;5014650;28;20049;-79
2021/10/03 06:25:13;;;;;;;0.10;0.10;;;15.00;99.90;;;;;;5037764;28;20069;-79
2021/10/03 06:27:39;;;;;;;0.10;0.10;;;15.00;99.90;;;;;;5034198;28;20104;-79
2021/10/03 06:30:05;;;;;;;0.10;0.10;;;14.90;99.90;;;;;;5026147;28;20184;-79
2021/10/03 06:32:31;;;;;;;0.10;0.10;;;15.00;99.90;;;;;;5023565;28;20022;-78
2021/10/03 06:34:56;;;;;;;0.10;0.10;;;15.00;99.90;;;;;;5031001;28;20071;-79
2021/10/03 06:37:22;;;;;;;0.10;0.10;;;15.10;99.90;;;;;;5031684;28;20029;-79
2021/10/03 06:39:48;;;;;;;0.10;0.10;;;15.10;99.90;;;;;;5012329;28;20032;-79
2021/10/03 06:42:14;;;;;;;0.10;0.10;;;15.10;99.90;;;;;;5014706;28;20046;-78
2021/10/03 06:44:39;;;;;;;0.10;0.10;;;15.10;99.90;;;;;;5014704;28;20026;-78
2021/10/03 06:47:09;;;;;;;0.10;0.10;;;15.20;99.90;;;;;;5013876;28;20330;-78
2021/10/03 06:49:44;;;;;;;0.10;0.10;;;15.20;99.90;;;;;;5029664;28;20120;-79
2021/10/03 06:52:12;;;;;;;0.10;0.10;;;15.20;99.90;;;;;;5028909;28;20063;-78
2021/10/03 06:54:38;;;;;;;0.10;0.10;;;15.20;99.90;;;;;;5029484;28;20036;-79
2021/10/03 06:57:04;;;;;;;0.10;0.10;;;15.20;99.90;;;;;;5013706;28;20025;-78
2021/10/03 06:59:33;;;;;;;0.10;0.10;;;15.20;99.90;;;;;;5014206;28;20097;-78
2021/10/03 07:02:00;;;;;;;0.10;0.10;;;15.20;99.90;;;;;;5012088;28;20041;-78
2021/10/03 07:04:30;;;;;;;0.10;0.10;;;15.20;99.90;;;;;;5014219;28;20022;-78
2021/10/03 07:06:57;;;;;;;0.10;0.10;;;15.30;99.90;;;;;;5013486;28;20518;-78
2021/10/03 07:09:23;;;;;;;0.10;0.10;;;15.20;99.90;;;;;;5029218;28;20447;-78
2021/10/03 07:11:48;;;;;;;0.10;0.10;;;15.20;99.90;;;;;;5013239;28;20033;-78
2021/10/03 07:14:14;;;;;;;0.10;0.10;;;15.20;99.90;;;;;;5013883;28;20022;-79
2021/10/03 07:16:39;;;;;;;0.10;0.10;;;15.30;99.90;;;;;;5013590;28;20423;-77
2021/10/03 07:19:05;;;;;;;0.10;0.10;;;15.30;99.90;;;;;;5013496;28;20045;-79
2021/10/03 07:21:31;;;;;;;0.10;0.10;;;15.30;99.90;;;;;;5013815;28;20060;-77
2021/10/03 07:23:56;;;;;;;0.10;0.10;;;15.20;99.90;;;;;;5013332;28;20033;-78
2021/10/03 07:26:22;;;;;;;0.10;0.10;;;15.20;99.90;;;;;;5028771;28;20026;-78
2021/10/03 07:28:48;;;;;;;0.10;0.10;;;15.20;99.90;;;;;;5028231;28;20022;-77
2021/10/03 07:31:13;;;;;;;0.10;0.10;;;15.10;99.90;;;;;;5013765;28;20018;-78
2021/10/03 07:33:39;;;;;;;0.10;0.10;;;15.20;99.90;;;;;;5013598;28;20022;-78
2021/10/03 07:36:05;;;;;;;0.10;0.10;;;15.10;99.90;;;;;;5027947;28;20033;-79
2021/10/03 07:38:30;;;;;;;0.10;0.10;;;15.10;99.90;;;;;;5013616;28;20477;-79
2021/10/03 07:40:56;;;;;;;0.10;0.10;;;15.10;99.90;;;;;;5027566;28;20046;-79
2021/10/03 07:43:22;;;;;;;0.05;0.05;;;15.10;99.90;;;;;;5028592;28;20359;-78
2021/10/03 07:45:47;;;;;;;0.10;0.10;;;15.10;99.90;;;;;;5027742;28;20026;-77
2021/10/03 07:48:13;;;;;;;0.10;0.10;;;15.10;99.90;;;;;;5028475;28;20018;-79
2021/10/03 07:50:39;;;;;;;0.10;0.10;;;15.00;99.90;;;;;;5012904;28;20072;-79
2021/10/03 07:53:04;;;;;;;0.10;0.10;;;15.00;99.90;;;;;;5027883;28;20083;-79
2021/10/03 07:55:30;;;;;;;0.10;0.10;;;15.10;99.90;;;;;;5013313;28;20021;-80
2021/10/03 07:58:02;;;;;;;0.10;0.10;;;15.00;99.90;;;;;;5027661;28;20406;-79
2021/10/03 08:00:29;;;;;;;0.10;0.10;;;15.00;99.90;;;;;;5013276;28;20036;-80
2021/10/03 08:02:54;;;;;;;0.30;0.10;;;15.00;99.90;;;;;;5027695;28;20129;-79
2021/10/03 08:05:20;;;;;;;0.10;0.10;;;15.00;99.90;;;;;;5028047;28;20425;-78
2021/10/03 08:07:46;;;;;;;0.10;0.10;;;15.00;99.90;;;;;;5012531;28;20127;-79
2021/10/03 08:10:11;;;;;;;0.10;0.10;;;15.00;99.90;;;;;;5027454;28;20029;-79
2021/10/03 08:12:37;;;;;;;0.10;0.10;;;15.00;99.90;;;;;;5013102;28;20088;-80
2021/10/03 08:15:03;;;;;;;0.10;0.10;;;15.10;99.90;;;;;;5012489;28;20104;-79
2021/10/03 08:17:29;;;;;;;0.10;0.10;;;15.10;99.90;;;;;;5012634;28;20471;-80
2021/10/03 08:19:54;;;;;;;0.10;0.10;;;15.10;99.90;;;;;;5011922;28;20056;-78
2021/10/03 08:22:20;;;;;;;0.10;0.10;;;15.10;99.90;;;;;;5027939;28;20061;-79
2021/10/03 08:24:45;;;;;;;0.10;0.10;;;15.00;99.90;;;;;;5027522;28;20022;-79
2021/10/03 08:27:11;;;;;;;0.10;0.10;;;15.00;99.90;;;;;;5027174;28;20025;-78
2021/10/03 08:29:37;;;;;;;0.10;0.10;;;15.00;99.90;;;;;;5021757;28;20423;-78
2021/10/03 08:32:03;;;;;;;0.10;0.10;;;15.10;99.90;;;;;;5022139;28;20032;-78
2021/10/03 08:34:29;;;;;;;0.10;0.10;;;15.00;99.90;;;;;;5020213;28;20041;-77
2021/10/03 08:36:54;;;;;;;0.10;0.10;;;15.10;99.90;;;;;;5024978;28;20042;-77
2021/10/03 08:39:20;;;;;;;0.10;0.10;;;15.10;99.90;;;;;;5023506;28;20036;-77
2021/10/03 08:41:46;;;;;;;0.10;0.10;;;15.10;99.90;;;;;;5024623;28;20068;-78
2021/10/03 08:44:13;;;;;;;0.10;0.10;;;15.10;99.90;;;;;;5023808;28;20409;-78
2021/10/03 08:46:40;;;;;;;0.10;0.10;;;15.00;99.90;;;;;;5023259;28;20032;-78
2021/10/03 08:49:06;;;;;;;0.10;0.10;;;15.00;99.90;;;;;;5023920;28;20517;-78
2021/10/03 08:51:32;;;;;;;0.10;0.10;;;14.90;99.90;;;;;;5023569;28;20056;-78
2021/10/03 08:53:58;;;;;;;0.10;0.10;;;14.80;99.90;;;;;;5023651;28;20025;-78
2021/10/03 08:56:24;;;;;;;0.10;0.10;;;14.80;99.90;;;;;;5022330;28;20040;-78
2021/10/03 08:58:51;;;;;;;0.10;0.10;;;14.70;99.90;;;;;;5022373;28;20060;-76
2021/10/03 09:01:21;;;;;;;0.10;0.10;;;14.70;99.90;;;;;;5022106;28;20060;-77
2021/10/03 09:03:47;;;;;;;0.10;0.10;;;14.70;99.90;;;;;;5021752;28;20034;-77
2021/10/03 09:06:12;;;;;;;0.10;0.10;;;14.70;99.90;;;;;;5021171;28;20026;-78
2021/10/03 09:08:42;;;;;;;0.10;0.10;;;14.70;99.90;;;;;;5022957;28;20389;-77
2021/10/03 09:11:10;;;;;;;0.10;0.10;;;14.70;99.90;;;;;;5022488;28;20355;-77
2021/10/03 09:13:35;;;;;;;0.10;0.10;;;14.60;99.90;;;;;;5022541;28;20025;-77
2021/10/03 09:16:10;;;;;;;0.10;0.10;;;14.60;99.90;;;;;;5021422;28;20029;-76
2021/10/03 09:18:42;;;;;;;0.10;0.10;;;14.60;99.90;;;;;;5021353;28;20359;-77
2021/10/03 09:21:10;;;;;;;0.10;0.10;;;14.60;99.90;;;;;;5023442;28;20354;-76
2021/10/03 09:23:36;;;;;;;0.10;0.10;;;14.70;99.90;;;;;;5018272;28;20422;-76
2021/10/03 09:26:08;;;;;;;0.10;0.10;;;14.70;99.90;;;;;;5018874;28;20037;-78
2021/10/03 09:28:34;;;;;;;0.10;0.10;;;14.70;99.90;;;;;;5028983;28;20046;-78
2021/10/03 09:31:05;;;;;;;0.10;0.10;;;14.70;99.90;;;;;;5023798;28;20029;-78
2021/10/03 09:33:41;;;;;;;0.10;0.10;;;14.60;99.90;;;;;;5022858;28;20037;-78
2021/10/03 09:36:07;;;;;;;0.10;0.10;;;14.60;99.90;;;;;;5021596;28;20034;-77
2021/10/03 09:39:01;;;;;;;0.10;0.10;;;14.60;99.90;;;;;;5020631;28;20117;-78
2021/10/03 09:41:30;;;;;;;0.10;0.10;;;14.60;99.90;;;;;;5016458;28;20067;-78
2021/10/03 09:44:08;;;;;;;0.10;0.10;;;14.50;99.90;;;;;;5022351;28;20033;-77
2021/10/03 09:46:45;;;;;;;0.10;0.10;;;14.60;99.90;;;;;;5020988;28;20037;-78
2021/10/03 09:49:10;;;;;;;0.10;0.10;;;14.50;99.90;;;;;;5020786;28;20045;-78
2021/10/03 09:51:38;;;;;;;0.10;0.10;;;14.50;99.90;;;;;;5022830;28;20167;-79
2021/10/03 09:54:05;;;;;;;0.10;0.10;;;14.50;99.90;;;;;;5023328;28;20029;-77
2021/10/03 09:56:32;;;;;;;0.10;0.10;;;14.50;99.90;;;;;;5022608;28;20030;-77
2021/10/03 09:58:59;;;;;;;0.10;0.10;;;14.60;99.90;;;;;;5021545;28;20444;-77
2021/10/03 10:01:25;;;;;;;0.10;0.10;;;14.60;99.90;;;;;;5023882;28;20107;-77
2021/10/03 10:03:51;;;;;;;0.10;0.10;;;14.60;99.90;;;;;;5023358;28;20057;-77
2021/10/03 10:06:17;;;;;;;0.10;0.10;;;14.60;99.90;;;;;;5020457;28;20516;-78
2021/10/03 10:08:44;;;;;;;0.10;0.10;;;14.70;99.90;;;;;;5022248;28;20137;-78
2021/10/03 10:11:23;;;;;;;0.10;0.10;;;14.70;99.90;;;;;;5023401;28;20022;-76
2021/10/03 10:13:56;;;;;;;0.10;0.10;;;14.80;99.90;;;;;;5024596;28;20090;-79
2021/10/03 10:16:49;;;;;;;0.10;0.10;;;14.80;99.90;;;;;;5025854;28;20037;-79
2021/10/03 10:19:28;;;;;;;0.10;0.10;;;14.90;99.90;;;;;;5026046;28;20037;-79
2021/10/03 10:22:12;;;;;;;0.10;0.10;;;14.90;99.90;;;;;;5027006;28;20101;-78
2021/10/03 10:24:46;;;;;;;0.10;0.10;;;15.00;99.90;;;;;;5024042;28;20487;-79
2021/10/03 10:27:21;;;;;;;0.10;0.10;;;15.00;99.90;;;;;;5017051;28;20043;-79
2021/10/03 10:29:57;;;;;;;0.10;0.10;;;15.10;99.90;;;;;;5015645;28;20059;-79
2021/10/03 10:32:29;;;;;;;0.10;0.10;;;15.10;99.90;;;;;;5027526;28;20497;-78
2021/10/03 10:35:07;;;;;;;0.10;0.10;;;15.10;99.90;;;;;;5024943;28;20141;-78
2021/10/03 10:37:51;;;;;;;0.10;0.10;;;15.20;99.90;;;;;;5025355;28;20108;-78
2021/10/03 10:40:29;;;;;;;0.10;0.10;;;15.20;99.90;;;;;;5024167;28;20036;-79
2021/10/03 10:43:03;;;;;;;0.10;0.10;;;15.20;99.90;;;;;;5025227;28;20053;-78
2021/10/03 10:45:41;;;;;;;0.10;0.10;;;15.20;99.90;;;;;;5024163;28;20033;-79
2021/10/03 10:48:07;;;;;;;0.10;0.10;;;15.20;99.90;;;;;;5024089;28;20109;-79
2021/10/03 10:50:52;;;;;;;0.10;0.10;;;15.20;99.90;;;;;;5025111;28;20157;-78
2021/10/03 10:53:21;;;;;;;0.10;0.10;;;15.20;99.90;;;;;;5022858;28;20093;-79
2021/10/03 10:56:06;;;;;;;0.10;0.10;;;15.20;99.90;;;;;;5023559;28;20040;-78
2021/10/03 10:58:37;;;;;;;0.10;0.10;;;15.20;99.90;;;;;;5031677;28;20033;-79
2021/10/03 11:01:12;;;;;;;0.10;0.10;;;15.20;99.90;;;;;;5034236;28;20029;-79
2021/10/03 11:03:44;;;;;;;0.10;0.10;;;15.30;99.90;;;;;;5034941;28;20021;-79
2021/10/03 11:06:11;;;;;;;0.10;0.10;;;15.30;99.90;;;;;;5033970;28;20036;-79
2021/10/03 11:08:58;;;;;;;0.10;0.10;;;15.30;99.90;;;;;;5032888;28;20037;-79
2021/10/03 11:11:28;;;;;;;0.10;0.10;;;15.40;99.90;;;;;;5033935;28;20025;-78
2021/10/03 11:13:56;;;;;;;0.10;0.10;;;15.50;99.90;;;;;;5030057;28;20022;-78
2021/10/03 11:16:26;;;;;;;0.10;0.10;;;15.50;99.90;;;;;;5019138;28;20033;-78
2021/10/03 11:19:14;;;;;;;0.10;0.10;;;15.50;99.90;;;;;;5020526;28;20030;-78
2021/10/03 11:21:47;;;;;;;0.10;0.10;;;15.50;99.90;;;;;;5043991;28;20017;-79
2021/10/03 11:24:25;;;;;;;0.10;0.10;;;15.50;99.90;;;;;;5032859;28;20026;-80
2021/10/03 11:26:55;;;;;;;0.10;0.10;;;15.50;99.90;;;;;;5048154;28;20103;-80
2021/10/03 11:29:29;;;;;;;0.10;0.10;;;15.50;99.90;;;;;;5048177;28;20028;-80
2021/10/03 11:31:57;;;;;;;0.10;0.10;;;15.50;99.90;;;;;;5048863;28;20477;-80
2021/10/03 11:34:35;;;;;;;0.10;0.10;;;15.50;99.90;;;;;;5032438;28;20053;-80
2021/10/03 11:37:10;;;;;;;0.10;0.10;;;15.50;99.90;;;;;;5032679;28;20010;-80
2021/10/03 11:40:12;;;;;;;0.10;0.10;;;15.50;99.90;;;;;;5048698;28;20392;-78
2021/10/03 11:42:57;;;;;;;0.10;0.10;;;15.50;99.90;;;;;;5030373;28;20393;-80
2021/10/03 11:45:25;;;;;;;0.10;0.10;;;15.60;99.90;;;;;;5045360;28;20040;-80
2021/10/03 11:47:57;;;;;;;0.10;0.10;;;15.60;99.90;;;;;;5011517;28;20025;-80
2021/10/03 11:50:45;;;;;;;0.10;0.10;;;15.60;99.90;;;;;;5012612;28;20021;-81
2021/10/03 11:53:32;;;;;;;0.10;0.10;;;15.60;99.90;;;;;;5011523;28;20100;-80
2021/10/03 11:56:09;;;;;;;0.10;0.10;;;15.60;99.90;;;;;;5012936;28;20049;-80
2021/10/03 11:58:40;;;;;;;0.10;0.10;;;15.50;99.90;;;;;;5021198;28;20022;-79
2021/10/03 12:01:06;;;;;;;0.10;0.10;;;15.50;99.90;;;;;;5012216;28;20032;-79
2021/10/03 12:03:46;;;;;;;0.10;0.10;;;15.50;99.90;;;;;;5013062;28;20018;-79
2021/10/03 12:06:26;;;;;;;0.10;0.10;;;15.50;99.90;;;;;;5012383;28;20030;-79
2021/10/03 12:08:52;;;;;;;0.10;0.10;;;15.50;99.90;;;;;;5012591;28;20509;-79
2021/10/03 12:11:17;;;;;;;0.10;0.10;;;15.60;99.90;;;;;;5012305;28;20026;-79
2021/10/03 12:13:57;;;;;;;0.10;0.10;;;15.60;99.90;;;;;;5012858;28;20362;-79
2021/10/03 12:16:22;;;;;;;0.10;0.10;;;15.60;99.90;;;;;;5011928;28;20037;-79
2021/10/03 12:18:50;;;;;;;0.10;0.10;;;15.60;99.90;;;;;;5012381;28;20018;-79
2021/10/03 12:21:32;;;;;;;0.10;0.10;;;15.50;99.90;;;;;;5012295;28;20097;-80
2021/10/03 12:24:08;;;;;;;0.10;0.10;;;15.60;99.90;;;;;;5012766;28;20040;-79
2021/10/03 12:26:38;;;;;;;0.10;0.10;;;15.60;99.90;;;;;;5012545;28;20028;-79
2021/10/03 12:29:07;;;;;;;0.10;0.10;;;15.60;99.90;;;;;;5010363;28;20038;-76
2021/10/03 12:31:38;;;;;;;0.10;0.10;;;15.60;99.90;;;;;;5033769;28;20021;-83
2021/10/03 12:34:07;;;;;;;0.10;0.10;;;15.70;99.90;;;;;;5030061;28;20024;-78
2021/10/03 12:36:33;;;;;;;0.10;0.10;;;15.70;99.90;;;;;;5031553;28;20059;-77
2021/10/03 12:38:59;;;;;;;0.10;0.10;;;15.70;99.90;;;;;;5029033;28;20026;-75
2021/10/03 12:41:25;;;;;;;0.10;0.10;;;15.80;99.90;;;;;;5028456;28;20056;-75
2021/10/03 12:43:55;;;;;;;0.10;0.10;;;15.70;99.90;;;;;;5029998;28;20036;-75
2021/10/03 12:46:21;;;;;;;0.10;0.10;;;15.70;99.90;;;;;;5029163;28;20029;-76
2021/10/03 12:48:47;;;;;;;0.10;0.10;;;15.70;99.90;;;;;;5030294;28;20033;-76
2021/10/03 12:51:13;;;;;;;0.10;0.10;;;15.70;99.90;;;;;;5029565;28;20033;-76
2021/10/03 12:53:38;;;;;;;0.10;0.10;;;15.70;99.90;;;;;;5022206;28;20121;-76